This is the latest recevied weather packets stored in our database for station/object SQ9CIE-4. If no packets are shown the sender has not sent any weather packets the latest 1 day(s).
| Time | Temp. | Humidity | Pressure | Rain* | Wind** | Luminosity | Snow |
|---|---|---|---|---|---|---|---|
| 1777960558 | 17.78° C | 44% | 1010.5 hPa | 0 mm | 1.79 m/s, 122° | 240 W/m² | - |
| 1777960258 | 17.78° C | 44% | 1010.7 hPa | 0 mm | 1.34 m/s, 115° | 188 W/m² | - |
| 1777959958 | 17.22° C | 45% | 1010.6 hPa | 0 mm | 0 m/s | 230 W/m² | - |
| 1777959658 | 17.78° C | 44% | 1010.5 hPa | 0 mm | 2.24 m/s, 108° | 224 W/m² | - |
| 1777959358 | 17.22° C | 46% | 1010.8 hPa | 0 mm | 1.34 m/s, 92° | 209 W/m² | - |
| 1777959058 | 16.11° C | 47% | 1010.7 hPa | 0 mm | 1.79 m/s, 92° | 196 W/m² | - |
| 1777958758 | 16.11° C | 46% | 1010.9 hPa | 0 mm | 1.34 m/s, 85° | 164 W/m² | - |
| 1777958458 | 16.11° C | 45% | 1011 hPa | 0 mm | 1.34 m/s, 84° | 169 W/m² | - |
| 1777958158 | 16.11° C | 47% | 1010.9 hPa | 0 mm | 0 m/s | 153 W/m² | - |
| 1777957858 | 16.11° C | 46% | 1010.9 hPa | 0 mm | 0.89 m/s, 81° | 142 W/m² | - |
| 1777957558 | 16.11° C | 45% | 1011 hPa | 0 mm | 1.79 m/s, 82° | 131 W/m² | - |
| 1777957258 | 15° C | 47% | 1011.2 hPa | 0 mm | 0.89 m/s, 80° | 109 W/m² | - |
| 1777956958 | 16.11° C | 44% | 1010.9 hPa | 0 mm | 1.79 m/s, 80° | 99 W/m² | - |
| 1777956658 | 16.11° C | 44% | 1010.9 hPa | 0 mm | 1.34 m/s, 80° | 94 W/m² | - |
| 1777956358 | 16.11° C | 44% | 1011 hPa | 0 mm | 0 m/s | 86 W/m² | - |
| 1777956058 | 16.11° C | 44% | 1011 hPa | 0 mm | 0.89 m/s, 80° | 79 W/m² | - |
| 1777955758 | 16.11° C | 42% | 1011 hPa | 0 mm | 0.89 m/s, 80° | 71 W/m² | - |
| 1777955458 | 15° C | 43% | 1011.2 hPa | 0 mm | 0.45 m/s, 80° | 62 W/m² | - |
| 1777955158 | 15° C | 43% | 1011.1 hPa | 0 mm | 0.45 m/s, 80° | 56 W/m² | - |
| 1777954858 | 15° C | 43% | 1011.2 hPa | 0 mm | 1.79 m/s, 80° | 49 W/m² | - |
| 1777954558 | 15° C | 44% | 1011.3 hPa | 0 mm | 1.34 m/s, 80° | 43 W/m² | - |
| 1777954258 | 15° C | 43% | 1011.2 hPa | 0 mm | 1.79 m/s, 80° | 37 W/m² | - |
| 1777953958 | 15° C | 43% | 1011.3 hPa | 0 mm | 0.45 m/s, 55° | 31 W/m² | - |
| 1777953658 | 15° C | 43% | 1011.3 hPa | 0 mm | 0 m/s | 27 W/m² | - |
| 1777953358 | 13.89° C | 43% | 1011.3 hPa | 0 mm | 0.45 m/s, 55° | 22 W/m² | - |
* Rain latest hour (hover to see other rain measurements)
** Current wind speed in m/s (hover to see current wind gust speed)